Time;durP1;ratioP1;P1;durP2;ratioP2;P2;SDS_P1;SDS_P2;PMS_P1;PMS_P2;Temp;Humidity;BMP_temperature;BMP_pressure;BME280_temperature;BME280_humidity;BME280_pressure;Samples;Min_cycle;Max_cycle;Signal;HPM_P1;HPM_P2
2021/12/16 00:03:19;;;;;;;;;;;5.10;35.00;;;;;;5107116;28;19969;-71
2021/12/16 00:08:34;;;;;;;;;;;5.00;35.70;;;;;;5103275;28;20383;-71
2021/12/16 00:11:15;;;;;;;;;;;5.00;35.40;;;;;;5103780;27;19923;-71
2021/12/16 00:19:48;;;;;;;;;;;5.10;34.90;;;;;;5083458;28;20347;-71
2021/12/16 00:31:04;;;;;;;;;;;4.90;35.00;;;;;;5081694;27;19962;-71
2021/12/16 00:33:35;;;;;;;;;;;4.90;34.70;;;;;;5105085;27;19927;-72
2021/12/16 00:36:04;;;;;;;;;;;4.90;34.80;;;;;;5098327;28;19969;-72
2021/12/16 00:38:32;;;;;;;;;;;4.90;34.60;;;;;;5105641;27;19920;-72
2021/12/16 00:41:01;;;;;;;;;;;4.90;35.80;;;;;;5103014;28;19920;-71
2021/12/16 00:43:38;;;;;;;;;;;4.90;35.80;;;;;;5105216;28;19934;-71
2021/12/16 00:46:17;;;;;;;;;;;4.90;36.00;;;;;;5100604;27;20399;-72
2021/12/16 00:54:16;;;;;;;;;;;4.80;36.00;;;;;;5082895;28;20014;-71
2021/12/16 00:56:47;;;;;;;;;;;4.90;36.60;;;;;;5100600;28;19919;-72
2021/12/16 00:59:18;;;;;;;;;;;4.90;36.20;;;;;;5098213;28;20509;-71
2021/12/16 01:01:54;;;;;;;;;;;4.80;36.70;;;;;;5106942;27;19966;-71
2021/12/16 01:04:50;;;;;;;;;;;4.90;36.60;;;;;;5106470;27;19929;-71
2021/12/16 01:07:43;;;;;;;;;;;4.80;35.90;;;;;;5075011;28;19976;-71
2021/12/16 01:35:22;;;;;;;;;;;4.80;36.30;;;;;;5096742;28;20385;-71
2021/12/16 01:38:34;;;;;;;;;;;4.80;36.70;;;;;;5100320;28;19967;-71
2021/12/16 01:41:37;;;;;;;;;;;4.70;36.90;;;;;;5090886;28;19958;-72
2021/12/16 01:47:10;;;;;;;;;;;4.80;35.60;;;;;;5094857;28;19966;-72
2021/12/16 01:49:50;;;;;;;;;;;4.90;36.20;;;;;;5096908;28;19920;-72
2021/12/16 01:55:11;;;;;;;;;;;4.90;35.60;;;;;;5065458;28;19926;-72
2021/12/16 01:57:43;;;;;;;;;;;4.90;34.50;;;;;;5098764;28;20396;-72
2021/12/16 02:00:13;;;;;;;;;;;4.90;35.40;;;;;;5095236;28;20022;-72
2021/12/16 02:02:45;;;;;;;;;;;4.90;35.00;;;;;;5097547;28;19926;-72
2021/12/16 02:05:35;;;;;;;;;;;4.90;35.30;;;;;;5092492;28;20212;-72
2021/12/16 02:08:18;;;;;;;;;;;4.90;36.30;;;;;;5097090;28;19981;-72
2021/12/16 02:10:57;;;;;;;;;;;4.90;36.50;;;;;;5099475;28;19924;-72
2021/12/16 02:13:48;;;;;;;;;;;4.80;36.20;;;;;;5082248;28;20038;-72
2021/12/16 02:27:34;;;;;;;;;;;4.90;35.50;;;;;;5094830;28;20559;-71
2021/12/16 02:30:46;;;;;;;;;;;4.90;35.40;;;;;;5096532;28;19927;-71
2021/12/16 02:33:33;;;;;;;;;;;4.90;34.40;;;;;;5083718;28;20017;-71
2021/12/16 02:36:13;;;;;;;;;;;4.80;35.10;;;;;;5089485;28;20431;-72
2021/12/16 02:38:46;;;;;;;;;;;4.90;36.10;;;;;;5105889;28;20431;-72
2021/12/16 02:41:14;;;;;;;;;;;4.80;35.00;;;;;;5104655;28;19927;-71
2021/12/16 02:44:12;;;;;;;;;;;4.80;35.80;;;;;;5094277;28;19955;-71
2021/12/16 02:49:27;;;;;;;;;;;4.90;35.80;;;;;;5101048;28;19928;-72
2021/12/16 02:51:57;;;;;;;;;;;4.90;35.90;;;;;;5104671;28;19994;-72
2021/12/16 02:54:26;;;;;;;;;;;4.90;36.40;;;;;;5078773;28;19952;-72
2021/12/16 02:56:56;;;;;;;;;;;4.80;36.00;;;;;;5094147;28;19919;-72
2021/12/16 02:59:28;;;;;;;;;;;4.80;36.60;;;;;;5100015;28;19923;-71
2021/12/16 03:02:00;;;;;;;;;;;4.80;36.50;;;;;;5086303;28;21277;-71
2021/12/16 03:04:30;;;;;;;;;;;4.90;36.40;;;;;;5101629;28;19966;-72
2021/12/16 03:07:00;;;;;;;;;;;4.90;36.40;;;;;;5097810;27;20371;-72
2021/12/16 03:12:30;;;;;;;;;;;4.80;35.90;;;;;;5103322;28;20024;-72
2021/12/16 03:15:05;;;;;;;;;;;4.80;36.70;;;;;;5101810;28;20014;-72
2021/12/16 03:17:40;;;;;;;;;;;4.90;36.90;;;;;;5103484;28;19966;-73
2021/12/16 03:20:14;;;;;;;;;;;4.90;36.20;;;;;;5099880;28;20306;-71
2021/12/16 03:22:56;;;;;;;;;;;4.90;37.60;;;;;;5106226;28;19973;-71
2021/12/16 03:25:35;;;;;;;;;;;4.90;37.60;;;;;;5081747;28;20392;-71
2021/12/16 03:31:03;;;;;;;;;;;4.90;37.90;;;;;;5103810;28;19920;-71
2021/12/16 03:36:28;;;;;;;;;;;4.90;37.80;;;;;;5088745;27;20341;-71
2021/12/16 03:38:57;;;;;;;;;;;4.90;37.90;;;;;;5097959;28;20002;-71
2021/12/16 03:41:27;;;;;;;;;;;4.80;37.20;;;;;;5100818;28;19928;-71
2021/12/16 03:43:58;;;;;;;;;;;4.80;37.90;;;;;;5106165;28;19928;-71
2021/12/16 03:46:29;;;;;;;;;;;4.90;38.40;;;;;;5102330;27;20421;-71
2021/12/16 03:49:04;;;;;;;;;;;4.90;37.60;;;;;;5103563;27;19972;-71
2021/12/16 03:51:34;;;;;;;;;;;4.90;37.50;;;;;;5072748;28;19920;-71
2021/12/16 03:54:05;;;;;;;;;;;4.90;37.50;;;;;;5093764;28;19953;-71
2021/12/16 03:56:34;;;;;;;;;;;4.80;36.70;;;;;;5096527;28;19928;-72
2021/12/16 03:59:03;;;;;;;;;;;4.80;37.50;;;;;;5099341;28;19930;-72
2021/12/16 04:01:31;;;;;;;;;;;4.90;37.40;;;;;;5104738;28;19996;-72
2021/12/16 04:03:59;;;;;;;;;;;4.90;37.90;;;;;;5097774;28;19923;-72
2021/12/16 04:06:29;;;;;;;;;;;4.90;37.50;;;;;;5096416;28;19923;-71
2021/12/16 04:08:58;;;;;;;;;;;4.90;36.60;;;;;;5098887;27;19951;-72
2021/12/16 04:11:31;;;;;;;;;;;4.90;37.10;;;;;;5096714;28;19974;-72
2021/12/16 04:14:04;;;;;;;;;;;5.00;37.10;;;;;;5101273;28;20219;-72
2021/12/16 04:16:34;;;;;;;;;;;4.90;37.00;;;;;;5096045;28;19923;-73
2021/12/16 04:19:05;;;;;;;;;;;4.90;37.20;;;;;;5097462;27;19928;-71
2021/12/16 04:21:33;;;;;;;;;;;4.90;37.10;;;;;;5100599;27;19927;-71
2021/12/16 04:24:01;;;;;;;;;;;4.80;37.50;;;;;;5099873;28;20302;-71
2021/12/16 04:26:30;;;;;;;;;;;4.80;37.80;;;;;;5102078;28;20372;-71
2021/12/16 04:28:58;;;;;;;;;;;4.90;37.60;;;;;;5101296;28;19951;-71
2021/12/16 04:31:27;;;;;;;;;;;4.80;36.50;;;;;;5104642;28;20015;-71
2021/12/16 04:33:55;;;;;;;;;;;4.90;36.80;;;;;;5099689;28;20311;-71
2021/12/16 04:36:23;;;;;;;;;;;4.80;36.50;;;;;;5099060;27;19924;-71
2021/12/16 04:38:52;;;;;;;;;;;4.90;37.10;;;;;;5103485;28;19939;-71
2021/12/16 04:41:27;;;;;;;;;;;4.80;36.60;;;;;;5103382;28;20345;-71
2021/12/16 04:43:56;;;;;;;;;;;4.90;36.80;;;;;;5100794;28;20065;-71
2021/12/16 04:46:25;;;;;;;;;;;4.90;36.90;;;;;;5100422;28;20421;-71
2021/12/16 04:48:59;;;;;;;;;;;4.90;36.70;;;;;;5101597;27;20012;-72
2021/12/16 04:51:28;;;;;;;;;;;4.90;35.60;;;;;;5105000;28;19926;-72
2021/12/16 04:53:55;;;;;;;;;;;4.90;36.10;;;;;;5073466;27;20278;-72
2021/12/16 04:56:23;;;;;;;;;;;4.80;36.30;;;;;;5100774;27;19920;-72
2021/12/16 04:58:52;;;;;;;;;;;4.80;36.20;;;;;;5107154;27;20374;-72
2021/12/16 05:01:22;;;;;;;;;;;4.80;35.90;;;;;;5097077;28;19920;-71
2021/12/16 05:03:51;;;;;;;;;;;4.80;36.30;;;;;;5103942;28;19926;-71
2021/12/16 05:06:20;;;;;;;;;;;4.90;37.20;;;;;;5066788;28;20030;-72
2021/12/16 05:08:48;;;;;;;;;;;4.80;36.00;;;;;;5105873;28;19971;-71
2021/12/16 05:11:19;;;;;;;;;;;4.80;35.50;;;;;;5101046;28;20006;-72
2021/12/16 05:13:48;;;;;;;;;;;4.80;36.20;;;;;;5103557;28;19927;-71
2021/12/16 05:16:16;;;;;;;;;;;4.90;36.10;;;;;;5099989;28;19928;-71
2021/12/16 05:18:44;;;;;;;;;;;4.90;35.20;;;;;;5100909;28;19924;-71
2021/12/16 05:21:36;;;;;;;;;;;4.90;34.80;;;;;;5102764;28;20382;-70
2021/12/16 05:24:16;;;;;;;;;;;4.90;35.60;;;;;;5103075;28;19919;-70
2021/12/16 05:26:44;;;;;;;;;;;4.90;34.60;;;;;;5098391;27;19963;-71
2021/12/16 05:29:12;;;;;;;;;;;4.90;35.10;;;;;;5102400;27;20294;-71
2021/12/16 05:31:40;;;;;;;;;;;4.90;35.00;;;;;;5104974;28;19927;-71
2021/12/16 05:34:12;;;;;;;;;;;4.90;35.00;;;;;;5101067;27;19963;-71
2021/12/16 05:36:40;;;;;;;;;;;5.00;34.80;;;;;;5103860;27;20014;-71
2021/12/16 05:39:11;;;;;;;;;;;5.00;33.80;;;;;;5103344;28;20011;-71
2021/12/16 05:41:39;;;;;;;;;;;4.90;33.80;;;;;;5102808;28;19920;-71
2021/12/16 05:44:08;;;;;;;;;;;5.00;33.80;;;;;;5101323;28;19928;-72
2021/12/16 05:46:37;;;;;;;;;;;4.90;33.80;;;;;;5099812;28;19959;-71
2021/12/16 05:49:06;;;;;;;;;;;4.90;33.80;;;;;;5104622;27;19927;-71
2021/12/16 05:51:34;;;;;;;;;;;4.90;34.30;;;;;;5104005;28;20028;-71
2021/12/16 05:54:03;;;;;;;;;;;4.90;33.80;;;;;;5101881;28;19927;-71
2021/12/16 05:56:32;;;;;;;;;;;4.90;33.80;;;;;;5099961;28;19920;-71
2021/12/16 05:59:00;;;;;;;;;;;4.90;34.70;;;;;;5104828;27;20003;-72
2021/12/16 06:01:30;;;;;;;;;;;4.90;33.90;;;;;;5102496;27;20003;-71
2021/12/16 06:03:58;;;;;;;;;;;4.90;35.60;;;;;;5098559;28;19924;-71
2021/12/16 06:06:27;;;;;;;;;;;5.00;35.30;;;;;;5099333;28;19926;-71
2021/12/16 06:08:55;;;;;;;;;;;4.90;35.20;;;;;;5101933;28;19963;-71
2021/12/16 06:11:27;;;;;;;;;;;5.00;35.10;;;;;;5104150;27;19932;-72
2021/12/16 06:14:03;;;;;;;;;;;5.00;35.00;;;;;;5100170;28;19971;-71
2021/12/16 06:22:33;;;;;;;;;;;5.00;35.20;;;;;;5040691;28;19952;-71
2021/12/16 06:27:50;;;;;;;;;;;5.00;34.90;;;;;;5099548;28;19968;-71
2021/12/16 06:30:21;;;;;;;;;;;5.00;35.10;;;;;;5102927;28;19972;-72
2021/12/16 06:32:49;;;;;;;;;;;4.90;35.50;;;;;;5100297;28;19931;-71
2021/12/16 06:35:17;;;;;;;;;;;4.90;35.80;;;;;;5101288;27;19930;-72
2021/12/16 06:37:45;;;;;;;;;;;5.00;34.90;;;;;;5100862;28;20006;-71
2021/12/16 06:40:14;;;;;;;;;;;4.90;34.90;;;;;;5098747;28;19975;-71
2021/12/16 06:42:43;;;;;;;;;;;4.90;34.80;;;;;;5102489;28;20014;-71
2021/12/16 06:45:15;;;;;;;;;;;4.90;34.90;;;;;;5084263;28;20280;-71
2021/12/16 06:47:48;;;;;;;;;;;5.00;35.50;;;;;;5096763;28;19930;-71
2021/12/16 06:50:26;;;;;;;;;;;5.00;34.00;;;;;;5102910;28;20007;-70
2021/12/16 06:52:58;;;;;;;;;;;5.00;33.90;;;;;;5101220;28;19940;-71
2021/12/16 06:55:34;;;;;;;;;;;4.90;33.80;;;;;;5097799;28;20007;-72
2021/12/16 06:58:11;;;;;;;;;;;4.90;34.80;;;;;;5096754;28;19926;-71
2021/12/16 07:00:44;;;;;;;;;;;4.90;34.00;;;;;;5104036;28;20392;-71
2021/12/16 07:03:19;;;;;;;;;;;4.90;34.00;;;;;;5082024;28;20002;-71
2021/12/16 07:05:49;;;;;;;;;;;5.00;33.80;;;;;;5099103;28;20003;-71
2021/12/16 07:08:18;;;;;;;;;;;5.00;33.80;;;;;;5103923;28;19926;-71
2021/12/16 07:10:47;;;;;;;;;;;5.00;33.80;;;;;;5101483;28;20047;-72
2021/12/16 07:13:18;;;;;;;;;;;5.00;33.80;;;;;;5094237;28;20271;-72
2021/12/16 07:15:47;;;;;;;;;;;5.00;33.80;;;;;;5092934;28;19942;-72
2021/12/16 07:18:16;;;;;;;;;;;5.00;33.20;;;;;;5098816;28;20395;-71
2021/12/16 07:20:45;;;;;;;;;;;4.90;33.10;;;;;;5104109;28;19988;-71
2021/12/16 07:23:18;;;;;;;;;;;5.00;33.20;;;;;;5101637;28;20009;-72
2021/12/16 07:25:47;;;;;;;;;;;5.00;33.30;;;;;;5099465;28;19920;-70
2021/12/16 07:28:15;;;;;;;;;;;5.00;33.40;;;;;;5101010;28;20042;-71
2021/12/16 07:30:44;;;;;;;;;;;5.00;33.30;;;;;;5099391;28;20400;-71
2021/12/16 07:33:12;;;;;;;;;;;5.00;33.80;;;;;;5101941;28;19935;-71
2021/12/16 07:35:42;;;;;;;;;;;4.90;33.20;;;;;;5103031;28;20082;-71
2021/12/16 07:38:10;;;;;;;;;;;5.00;33.80;;;;;;5096809;28;20007;-72
2021/12/16 07:40:38;;;;;;;;;;;5.00;33.30;;;;;;5095213;28;19923;-72
2021/12/16 07:43:25;;;;;;;;;;;5.10;33.90;;;;;;5098966;28;20290;-72
2021/12/16 07:45:55;;;;;;;;;;;5.20;33.30;;;;;;5094930;28;19927;-70
2021/12/16 07:48:24;;;;;;;;;;;5.10;32.60;;;;;;5099814;28;20019;-71
2021/12/16 07:50:55;;;;;;;;;;;5.00;32.50;;;;;;5096295;28;19963;-71
2021/12/16 07:53:24;;;;;;;;;;;5.10;33.60;;;;;;5102778;28;20397;-71
2021/12/16 07:55:52;;;;;;;;;;;5.20;31.90;;;;;;5104821;28;19991;-71
2021/12/16 07:58:20;;;;;;;;;;;5.20;32.20;;;;;;5102832;28;20010;-71
2021/12/16 08:00:50;;;;;;;;;;;5.20;31.90;;;;;;5104846;28;20608;-70
2021/12/16 08:03:19;;;;;;;;;;;5.20;31.50;;;;;;5084130;28;20004;-70
2021/12/16 08:05:50;;;;;;;;;;;5.30;31.80;;;;;;5102636;28;19951;-70
2021/12/16 08:08:20;;;;;;;;;;;5.20;30.10;;;;;;5107242;27;19936;-72
2021/12/16 08:10:48;;;;;;;;;;;5.20;31.70;;;;;;5103199;28;19966;-71
2021/12/16 08:13:16;;;;;;;;;;;5.30;29.90;;;;;;5104199;28;20379;-72
2021/12/16 08:15:44;;;;;;;;;;;5.20;30.10;;;;;;5100015;28;20019;-71
2021/12/16 08:18:12;;;;;;;;;;;5.20;31.10;;;;;;5102500;28;20335;-71
2021/12/16 08:20:41;;;;;;;;;;;5.30;31.70;;;;;;5105492;28;20011;-72
2021/12/16 08:23:12;;;;;;;;;;;5.30;31.10;;;;;;5084476;28;19959;-72
2021/12/16 08:25:44;;;;;;;;;;;5.30;30.60;;;;;;5100778;28;19927;-72
2021/12/16 08:28:15;;;;;;;;;;;5.40;31.20;;;;;;5100422;28;20380;-71
2021/12/16 08:30:46;;;;;;;;;;;5.40;30.00;;;;;;5101371;28;20393;-71
2021/12/16 08:33:16;;;;;;;;;;;5.40;30.00;;;;;;5102345;28;19920;-71
2021/12/16 08:35:48;;;;;;;;;;;5.50;29.70;;;;;;5104133;27;20022;-72
2021/12/16 08:38:18;;;;;;;;;;;5.60;29.50;;;;;;5104017;28;19988;-72
2021/12/16 08:40:51;;;;;;;;;;;5.60;29.00;;;;;;5103329;28;19924;-72
2021/12/16 08:43:20;;;;;;;;;;;5.50;28.70;;;;;;5082232;28;19928;-71
2021/12/16 08:45:56;;;;;;;;;;;5.70;29.20;;;;;;5098882;28;19920;-71
2021/12/16 08:48:26;;;;;;;;;;;5.70;28.50;;;;;;5103839;28;20012;-73
2021/12/16 08:50:54;;;;;;;;;;;5.70;27.70;;;;;;5104020;28;19924;-72
2021/12/16 08:53:23;;;;;;;;;;;5.80;27.20;;;;;;5100472;28;19924;-73
2021/12/16 08:55:54;;;;;;;;;;;5.70;26.90;;;;;;5102409;28;20362;-72
2021/12/16 08:58:22;;;;;;;;;;;5.70;26.90;;;;;;5102971;28;19919;-72
2021/12/16 09:00:51;;;;;;;;;;;5.60;26.90;;;;;;5099844;28;19923;-70
2021/12/16 09:03:19;;;;;;;;;;;5.40;27.20;;;;;;5103128;27;19923;-71
2021/12/16 09:05:47;;;;;;;;;;;5.60;29.20;;;;;;5101448;28;19923;-71
2021/12/16 09:08:15;;;;;;;;;;;5.70;27.70;;;;;;5102840;27;20087;-72
2021/12/16 09:10:43;;;;;;;;;;;5.70;27.70;;;;;;5103724;27;20401;-71
2021/12/16 09:13:14;;;;;;;;;;;5.80;27.40;;;;;;5100490;28;20500;-73
2021/12/16 09:15:48;;;;;;;;;;;5.80;26.90;;;;;;5074594;28;19927;-71
2021/12/16 09:18:17;;;;;;;;;;;5.90;26.00;;;;;;5102009;28;19919;-71
2021/12/16 09:20:46;;;;;;;;;;;5.80;26.70;;;;;;5103645;27;19927;-71
2021/12/16 09:23:14;;;;;;;;;;;5.90;26.80;;;;;;5100125;28;20007;-71
2021/12/16 09:25:43;;;;;;;;;;;6.00;26.40;;;;;;5103674;27;20026;-72
2021/12/16 09:28:11;;;;;;;;;;;6.00;25.10;;;;;;5101976;28;19923;-71
2021/12/16 09:30:41;;;;;;;;;;;6.00;24.80;;;;;;5100903;28;20009;-72
2021/12/16 09:33:14;;;;;;;;;;;5.80;25.70;;;;;;5103290;27;19938;-71
2021/12/16 09:35:42;;;;;;;;;;;5.80;26.20;;;;;;5101547;28;20083;-71
2021/12/16 09:38:12;;;;;;;;;;;5.80;25.80;;;;;;5082040;28;20033;-71
2021/12/16 09:40:47;;;;;;;;;;;5.90;25.40;;;;;;5105250;27;19920;-72
2021/12/16 09:43:16;;;;;;;;;;;5.80;26.30;;;;;;5085912;28;20284;-71
2021/12/16 09:45:53;;;;;;;;;;;5.90;27.00;;;;;;5097738;28;19923;-71
2021/12/16 09:48:22;;;;;;;;;;;5.80;25.70;;;;;;5104044;27;20412;-72
2021/12/16 09:50:50;;;;;;;;;;;5.70;26.90;;;;;;5102256;28;20402;-70
2021/12/16 09:53:18;;;;;;;;;;;5.80;27.70;;;;;;5099185;28;19935;-72
2021/12/16 09:55:50;;;;;;;;;;;5.90;27.00;;;;;;5100574;28;20007;-71
2021/12/16 09:58:18;;;;;;;;;;;5.80;26.70;;;;;;5105438;27;20010;-72
2021/12/16 10:00:46;;;;;;;;;;;5.90;27.00;;;;;;5100743;27;19920;-70
2021/12/16 10:03:16;;;;;;;;;;;5.90;25.60;;;;;;5103907;28;19924;-71
2021/12/16 10:05:45;;;;;;;;;;;6.10;25.60;;;;;;5094803;27;20485;-71
2021/12/16 10:08:14;;;;;;;;;;;6.10;24.40;;;;;;5081640;28;19931;-71
2021/12/16 10:10:42;;;;;;;;;;;6.00;23.70;;;;;;5102296;28;20591;-70
2021/12/16 10:13:11;;;;;;;;;;;6.00;24.60;;;;;;5096562;28;19920;-72
2021/12/16 10:18:47;;;;;;;;;;;6.10;24.80;;;;;;5096183;28;20371;-71
2021/12/16 10:21:21;;;;;;;;;;;5.90;24.00;;;;;;5100685;28;20007;-72
2021/12/16 10:23:49;;;;;;;;;;;5.80;24.60;;;;;;5103402;27;19924;-73
2021/12/16 10:26:18;;;;;;;;;;;6.00;24.60;;;;;;5101573;27;19969;-72
2021/12/16 10:28:48;;;;;;;;;;;6.10;24.60;;;;;;5099923;28;19980;-72
2021/12/16 10:31:19;;;;;;;;;;;6.10;23.70;;;;;;5101743;28;19927;-72
2021/12/16 10:33:49;;;;;;;;;;;6.10;23.70;;;;;;5103212;28;20354;-72
2021/12/16 10:36:19;;;;;;;;;;;6.10;23.70;;;;;;5097446;28;20179;-72
2021/12/16 10:38:50;;;;;;;;;;;6.10;23.30;;;;;;5098708;28;20019;-71
2021/12/16 10:41:21;;;;;;;;;;;6.10;23.80;;;;;;5100216;28;19954;-71
2021/12/16 10:43:50;;;;;;;;;;;5.70;23.50;;;;;;5099250;28;20015;-72
2021/12/16 10:46:20;;;;;;;;;;;6.00;25.30;;;;;;5099841;28;19972;-72
2021/12/16 10:48:50;;;;;;;;;;;6.00;24.10;;;;;;5096600;28;20050;-72
2021/12/16 10:51:24;;;;;;;;;;;6.10;23.80;;;;;;5083018;28;19920;-72
2021/12/16 10:54:13;;;;;;;;;;;6.00;22.00;;;;;;5098575;28;20344;-73
2021/12/16 10:56:43;;;;;;;;;;;6.00;23.00;;;;;;5091982;28;19920;-71
2021/12/16 10:59:13;;;;;;;;;;;6.10;22.90;;;;;;5095368;28;20010;-71
2021/12/16 11:01:45;;;;;;;;;;;6.00;23.00;;;;;;5079216;28;19954;-71
2021/12/16 11:04:16;;;;;;;;;;;6.20;23.60;;;;;;5099801;28;19937;-70
2021/12/16 11:06:46;;;;;;;;;;;5.90;23.00;;;;;;5092840;28;19928;-72
2021/12/16 11:09:41;;;;;;;;;;;6.10;24.20;;;;;;5097717;28;19920;-70
2021/12/16 11:12:21;;;;;;;;;;;6.30;23.90;;;;;;5060762;28;20039;-71
2021/12/16 11:14:50;;;;;;;;;;;6.20;22.30;;;;;;5091919;28;20396;-69
2021/12/16 11:17:19;;;;;;;;;;;6.20;21.90;;;;;;5093043;28;19928;-71
2021/12/16 11:19:53;;;;;;;;;;;6.30;22.80;;;;;;5095847;28;19927;-72
2021/12/16 11:22:23;;;;;;;;;;;6.30;22.40;;;;;;5093327;28;19962;-72
2021/12/16 11:24:53;;;;;;;;;;;6.40;22.30;;;;;;5098521;28;19971;-72
2021/12/16 11:27:31;;;;;;;;;;;6.30;21.70;;;;;;5097120;28;19972;-72
2021/12/16 11:30:00;;;;;;;;;;;6.40;21.60;;;;;;5101621;27;19928;-71
2021/12/16 11:32:35;;;;;;;;;;;6.40;21.70;;;;;;5097735;28;20022;-71
2021/12/16 11:35:22;;;;;;;;;;;6.40;21.10;;;;;;5101699;27;20330;-71
2021/12/16 11:37:50;;;;;;;;;;;6.30;21.30;;;;;;5100077;28;19958;-70
2021/12/16 11:40:19;;;;;;;;;;;6.40;21.60;;;;;;5098220;27;20019;-72
2021/12/16 11:42:58;;;;;;;;;;;6.50;21.10;;;;;;5100504;27;19928;-71
2021/12/16 11:45:33;;;;;;;;;;;6.40;21.20;;;;;;5100297;27;19931;-71
2021/12/16 11:48:01;;;;;;;;;;;6.30;21.10;;;;;;5093882;27;19924;-71
2021/12/16 11:50:35;;;;;;;;;;;6.40;21.20;;;;;;5100157;28;20271;-72
2021/12/16 11:53:03;;;;;;;;;;;6.30;21.60;;;;;;5102143;28;19924;-71
2021/12/16 11:55:34;;;;;;;;;;;6.30;21.20;;;;;;5100483;28;19919;-70
2021/12/16 11:58:03;;;;;;;;;;;6.50;21.80;;;;;;5098298;28;19920;-72
2021/12/16 12:00:32;;;;;;;;;;;6.60;20.40;;;;;;5100768;27;20007;-72
2021/12/16 12:03:02;;;;;;;;;;;6.70;20.20;;;;;;5100829;27;20373;-71
2021/12/16 12:05:32;;;;;;;;;;;6.70;18.60;;;;;;5099492;28;19980;-72
2021/12/16 12:08:07;;;;;;;;;;;6.60;19.70;;;;;;5100051;28;20341;-71
2021/12/16 12:10:40;;;;;;;;;;;6.60;20.60;;;;;;5098191;28;19920;-71
2021/12/16 12:13:11;;;;;;;;;;;6.80;20.50;;;;;;5099369;28;19931;-72
2021/12/16 12:15:52;;;;;;;;;;;6.80;18.50;;;;;;5099984;27;19923;-71
2021/12/16 12:18:36;;;;;;;;;;;6.80;17.90;;;;;;5097260;28;19924;-70
2021/12/16 12:21:23;;;;;;;;;;;6.80;18.90;;;;;;5100279;27;20125;-70
2021/12/16 12:23:54;;;;;;;;;;;6.80;18.50;;;;;;5103042;28;19920;-72
2021/12/16 12:26:23;;;;;;;;;;;6.80;19.90;;;;;;5101129;28;20291;-69
2021/12/16 12:28:53;;;;;;;;;;;6.80;19.60;;;;;;5102694;28;19958;-69
2021/12/16 12:31:22;;;;;;;;;;;6.90;19.00;;;;;;5088869;28;20363;-69
2021/12/16 12:33:50;;;;;;;;;;;6.90;17.90;;;;;;5102755;28;19939;-68
2021/12/16 12:36:18;;;;;;;;;;;6.90;18.60;;;;;;5103436;28;19934;-68
2021/12/16 12:38:46;;;;;;;;;;;7.10;17.90;;;;;;5098791;28;19934;-72
2021/12/16 12:41:15;;;;;;;;;;;7.20;17.50;;;;;;5099482;28;20040;-69
2021/12/16 12:43:43;;;;;;;;;;;7.10;16.50;;;;;;5105455;27;20014;-69
2021/12/16 12:46:13;;;;;;;;;;;7.10;17.90;;;;;;5102340;28;20422;-70
2021/12/16 12:48:42;;;;;;;;;;;7.20;17.80;;;;;;5102464;27;19930;-69
2021/12/16 12:51:10;;;;;;;;;;;7.20;17.90;;;;;;5110163;27;19923;-70
2021/12/16 12:53:46;;;;;;;;;;;7.20;16.70;;;;;;5101912;28;19993;-69
2021/12/16 12:56:18;;;;;;;;;;;7.10;17.40;;;;;;5100491;28;20470;-70
2021/12/16 12:58:58;;;;;;;;;;;7.30;17.10;;;;;;5101306;28;19924;-68
2021/12/16 13:01:41;;;;;;;;;;;7.30;16.10;;;;;;5100523;28;19962;-69
2021/12/16 13:04:10;;;;;;;;;;;7.20;16.40;;;;;;5100546;27;19928;-69
2021/12/16 13:06:49;;;;;;;;;;;7.20;17.10;;;;;;5099362;28;19930;-69
2021/12/16 13:09:28;;;;;;;;;;;7.10;16.10;;;;;;5099002;28;19928;-68
2021/12/16 13:11:57;;;;;;;;;;;7.00;15.70;;;;;;5099920;27;19990;-69
2021/12/16 13:14:41;;;;;;;;;;;7.00;15.90;;;;;;5097592;28;20061;-69
2021/12/16 13:17:42;;;;;;;;;;;7.00;15.70;;;;;;5093521;28;20417;-68
2021/12/16 13:26:19;;;;;;;;;;;7.20;16.00;;;;;;5096298;28;20034;-69
2021/12/16 13:29:02;;;;;;;;;;;7.00;15.70;;;;;;5093070;28;20500;-68
2021/12/16 13:31:35;;;;;;;;;;;7.00;15.60;;;;;;5097181;28;19924;-68
2021/12/16 13:34:03;;;;;;;;;;;7.00;15.20;;;;;;5095364;28;19920;-68
2021/12/16 13:36:43;;;;;;;;;;;7.00;15.30;;;;;;5098839;27;19920;-68
2021/12/16 13:39:13;;;;;;;;;;;7.10;15.60;;;;;;5097881;27;20025;-68
2021/12/16 13:41:55;;;;;;;;;;;7.00;14.80;;;;;;5097625;27;19959;-68
2021/12/16 13:44:38;;;;;;;;;;;7.00;15.90;;;;;;5094918;28;19923;-67
2021/12/16 13:47:08;;;;;;;;;;;7.00;16.50;;;;;;5095917;28;19920;-69
2021/12/16 13:58:27;;;;;;;;;;;7.10;17.40;;;;;;5099629;28;19950;-70
2021/12/16 14:03:53;;;;;;;;;;;7.10;17.20;;;;;;5102358;28;19971;-70
2021/12/16 14:06:33;;;;;;;;;;;7.00;17.00;;;;;;5099265;28;19920;-68
2021/12/16 14:09:12;;;;;;;;;;;7.10;17.20;;;;;;5099595;28;19924;-69
2021/12/16 14:12:34;;;;;;;;;;;7.10;16.80;;;;;;5101403;27;19963;-68
2021/12/16 14:14:50;;;;;;;;;;;7.20;16.20;;;;;;5100509;28;19927;-70
2021/12/16 14:17:40;;;;;;;;;;;7.10;17.40;;;;;;5095279;28;20337;-69
2021/12/16 14:23:10;;;;;;;;;;;7.20;17.50;;;;;;5076491;28;20372;-69
2021/12/16 14:26:05;;;;;;;;;;;7.20;15.60;;;;;;5093967;28;19933;-69
2021/12/16 14:34:52;;;;;;;;;;;7.10;17.40;;;;;;5085540;27;20236;-69
2021/12/16 14:37:28;;;;;;;;;;;7.10;17.40;;;;;;5077242;28;19982;-69
2021/12/16 14:40:12;;;;;;;;;;;7.10;17.40;;;;;;5084333;28;19999;-69
2021/12/16 14:42:48;;;;;;;;;;;7.00;18.30;;;;;;5100843;28;19926;-68
2021/12/16 14:45:26;;;;;;;;;;;7.00;17.90;;;;;;5097000;28;19947;-68
2021/12/16 14:48:21;;;;;;;;;;;6.90;18.50;;;;;;5097887;28;19920;-68
2021/12/16 14:50:52;;;;;;;;;;;7.00;18.50;;;;;;5077909;28;20070;-69
2021/12/16 14:53:22;;;;;;;;;;;7.00;18.60;;;;;;5102915;28;19973;-69
2021/12/16 14:55:51;;;;;;;;;;;6.90;19.10;;;;;;5095275;28;19963;-68
2021/12/16 14:58:21;;;;;;;;;;;6.80;19.70;;;;;;5068028;28;19975;-68
2021/12/16 15:00:52;;;;;;;;;;;6.70;20.70;;;;;;5099903;28;19975;-68
2021/12/16 15:03:22;;;;;;;;;;;6.70;20.70;;;;;;5099336;28;19941;-70
2021/12/16 15:05:53;;;;;;;;;;;6.70;21.00;;;;;;5097359;27;20006;-69
2021/12/16 15:08:26;;;;;;;;;;;6.60;21.30;;;;;;5095231;27;22982;-69
2021/12/16 15:10:55;;;;;;;;;;;6.60;21.90;;;;;;5097372;28;20421;-69
2021/12/16 15:13:29;;;;;;;;;;;6.60;21.80;;;;;;5100928;27;20030;-67
2021/12/16 15:16:24;;;;;;;;;;;6.60;21.30;;;;;;5098834;27;19924;-67
2021/12/16 15:36:06;;;;;;;;;;;6.20;23.30;;;;;;5072184;28;20548;-69
2021/12/16 15:39:02;;;;;;;;;;;6.10;23.70;;;;;;5094999;28;19928;-67
2021/12/16 15:44:16;;;;;;;;;;;6.00;24.00;;;;;;5101103;28;19928;-68
2021/12/16 15:46:44;;;;;;;;;;;5.90;24.60;;;;;;5096841;28;19927;-68
2021/12/16 15:49:12;;;;;;;;;;;6.00;24.70;;;;;;5097436;28;19928;-68
2021/12/16 15:51:43;;;;;;;;;;;6.00;24.60;;;;;;5099439;27;20502;-69
2021/12/16 15:54:29;;;;;;;;;;;6.00;24.60;;;;;;5094475;28;19923;-69
2021/12/16 15:56:57;;;;;;;;;;;6.00;24.70;;;;;;5094656;28;19975;-68
2021/12/16 15:59:28;;;;;;;;;;;6.00;25.60;;;;;;5097890;28;20436;-68
2021/12/16 16:01:58;;;;;;;;;;;6.00;25.70;;;;;;5090488;28;19933;-68
2021/12/16 16:04:27;;;;;;;;;;;6.00;25.70;;;;;;5094055;28;20038;-69
2021/12/16 16:06:57;;;;;;;;;;;6.00;26.60;;;;;;5092044;28;20299;-67
2021/12/16 16:09:28;;;;;;;;;;;6.00;27.00;;;;;;5058965;28;20329;-70
2021/12/16 16:11:56;;;;;;;;;;;6.00;27.00;;;;;;5092961;28;19928;-69
2021/12/16 16:14:25;;;;;;;;;;;6.00;27.30;;;;;;5092555;28;19927;-69
2021/12/16 16:16:57;;;;;;;;;;;6.00;27.00;;;;;;5092133;28;20540;-69
2021/12/16 16:19:26;;;;;;;;;;;5.90;27.00;;;;;;5093338;28;19967;-69
2021/12/16 16:22:00;;;;;;;;;;;5.90;27.40;;;;;;5094410;28;20012;-69
2021/12/16 16:24:32;;;;;;;;;;;6.00;27.10;;;;;;5088795;28;19924;-69
2021/12/16 16:27:02;;;;;;;;;;;5.90;27.70;;;;;;5091133;28;19924;-69
2021/12/16 16:29:32;;;;;;;;;;;6.00;27.60;;;;;;5075931;28;19930;-70
2021/12/16 16:32:01;;;;;;;;;;;6.00;27.90;;;;;;5096276;28;20392;-70
2021/12/16 16:34:32;;;;;;;;;;;6.00;27.70;;;;;;5094978;28;19950;-70
2021/12/16 16:37:01;;;;;;;;;;;6.10;27.50;;;;;;5091756;28;19998;-71
2021/12/16 16:39:32;;;;;;;;;;;6.10;27.10;;;;;;5093782;28;19924;-70
2021/12/16 16:42:02;;;;;;;;;;;6.10;26.60;;;;;;5092874;28;20030;-70
2021/12/16 16:44:31;;;;;;;;;;;6.10;26.10;;;;;;5095411;28;19928;-70
2021/12/16 16:47:05;;;;;;;;;;;6.10;26.50;;;;;;5095203;28;20006;-69
2021/12/16 16:49:40;;;;;;;;;;;6.10;25.80;;;;;;5079940;28;20463;-70
2021/12/16 16:52:11;;;;;;;;;;;6.10;26.50;;;;;;5090932;28;19928;-70
2021/12/16 16:54:41;;;;;;;;;;;6.00;26.30;;;;;;5084327;28;19935;-69
2021/12/16 16:57:11;;;;;;;;;;;5.90;27.00;;;;;;5077189;28;20023;-70
2021/12/16 16:59:41;;;;;;;;;;;5.90;27.00;;;;;;5105046;28;19919;-69
2021/12/16 17:02:21;;;;;;;;;;;5.80;26.90;;;;;;5104905;28;19949;-69
2021/12/16 17:04:53;;;;;;;;;;;5.90;27.00;;;;;;5105287;27;19923;-70
2021/12/16 17:07:21;;;;;;;;;;;5.70;26.90;;;;;;5104210;27;19927;-69
2021/12/16 17:09:50;;;;;;;;;;;5.70;27.70;;;;;;5076879;28;20306;-69
2021/12/16 17:12:18;;;;;;;;;;;5.60;28.20;;;;;;5103062;27;19942;-69
2021/12/16 17:14:52;;;;;;;;;;;5.60;27.70;;;;;;5105207;27;19971;-70
2021/12/16 17:17:23;;;;;;;;;;;5.50;28.40;;;;;;5086218;28;19967;-70
2021/12/16 17:19:55;;;;;;;;;;;5.50;28.60;;;;;;5098837;28;19963;-70